Time;durP1;ratioP1;P1;durP2;ratioP2;P2;SDS_P1;SDS_P2;PMS_P1;PMS_P2;Temp;Humidity;BMP_temperature;BMP_pressure;BME280_temperature;BME280_humidity;BME280_pressure;Samples;Min_cycle;Max_cycle;Signal;HPM_P1;HPM_P2
2022/07/02 00:00:55;;;;;;;;;;;13.60;99.90;;;;;;5057063;28;19916;-69
2022/07/02 00:03:29;;;;;;;;;;;13.60;99.90;;;;;;5055802;28;19916;-69
2022/07/02 00:05:57;;;;;;;;;;;13.60;99.90;;;;;;5087440;28;19918;-69
2022/07/02 00:08:24;;;;;;;;;;;13.60;99.90;;;;;;5056902;28;19939;-69
2022/07/02 00:10:51;;;;;;;;;;;13.60;99.90;;;;;;5056006;28;20257;-69
2022/07/02 00:13:18;;;;;;;;;;;13.60;99.90;;;;;;5055493;28;19917;-69
2022/07/02 00:15:45;;;;;;;;;;;13.60;99.90;;;;;;5087872;28;19978;-69
2022/07/02 00:18:12;;;;;;;;;;;13.50;99.90;;;;;;5055633;28;19939;-69
2022/07/02 00:20:39;;;;;;;;;;;13.50;99.90;;;;;;5055793;28;20280;-69
2022/07/02 00:23:05;;;;;;;;;;;13.50;99.90;;;;;;5055729;28;20264;-69
2022/07/02 00:25:33;;;;;;;;;;;13.50;99.90;;;;;;5088584;28;19924;-69
2022/07/02 00:27:59;;;;;;;;;;;13.50;99.90;;;;;;5055663;28;19943;-69
2022/07/02 00:30:26;;;;;;;;;;;13.50;99.90;;;;;;5088478;28;19917;-69
2022/07/02 00:32:53;;;;;;;;;;;13.50;99.90;;;;;;5055508;28;19917;-69
2022/07/02 00:35:20;;;;;;;;;;;13.50;99.90;;;;;;5055442;28;19921;-69
2022/07/02 00:37:47;;;;;;;;;;;13.40;99.90;;;;;;5087451;28;19920;-69
2022/07/02 00:40:13;;;;;;;;;;;13.50;99.90;;;;;;5055083;28;19917;-69
2022/07/02 00:42:40;;;;;;;;;;;13.40;99.90;;;;;;5087171;28;20382;-69
2022/07/02 00:45:07;;;;;;;;;;;13.40;99.90;;;;;;5071401;28;19917;-69
2022/07/02 00:47:34;;;;;;;;;;;13.40;99.90;;;;;;5055196;28;19940;-69
2022/07/02 00:50:04;;;;;;;;;;;13.40;99.90;;;;;;5055219;28;19917;-69
2022/07/02 00:52:31;;;;;;;;;;;13.30;99.90;;;;;;5087218;28;19916;-69
2022/07/02 00:54:58;;;;;;;;;;;13.30;99.90;;;;;;5055496;28;19916;-69
2022/07/02 00:57:25;;;;;;;;;;;13.30;99.90;;;;;;5055190;28;19916;-69
2022/07/02 00:59:51;;;;;;;;;;;13.30;99.90;;;;;;5054778;28;19916;-69
2022/07/02 01:02:21;;;;;;;;;;;13.30;99.90;;;;;;5054352;28;19916;-69
2022/07/02 01:04:48;;;;;;;;;;;13.30;99.90;;;;;;5086733;28;19916;-69
2022/07/02 01:07:15;;;;;;;;;;;13.20;99.90;;;;;;5054648;28;20375;-69
2022/07/02 01:12:27;;;;;;;;;;;13.10;99.90;;;;;;5055112;28;20272;-68
2022/07/02 01:14:55;;;;;;;;;;;13.10;99.90;;;;;;5054692;28;20351;-69
2022/07/02 01:17:21;;;;;;;;;;;13.10;99.90;;;;;;5086550;28;19920;-69
2022/07/02 01:19:48;;;;;;;;;;;13.10;99.90;;;;;;5055181;28;19916;-68
2022/07/02 01:22:21;;;;;;;;;;;13.10;99.90;;;;;;5055221;28;19916;-68
2022/07/02 01:24:49;;;;;;;;;;;13.10;99.90;;;;;;5054225;28;19916;-68
2022/07/02 01:27:16;;;;;;;;;;;13.10;99.90;;;;;;5055037;28;19923;-68
2022/07/02 01:29:43;;;;;;;;;;;13.00;99.90;;;;;;5054537;28;19923;-68
2022/07/02 01:32:09;;;;;;;;;;;13.10;99.90;;;;;;5053235;28;20018;-68
2022/07/02 01:34:43;;;;;;;;;;;13.10;99.90;;;;;;5053997;28;20012;-68
2022/07/02 01:37:10;;;;;;;;;;;13.00;99.90;;;;;;5086973;28;19928;-68
2022/07/02 01:39:38;;;;;;;;;;;13.00;99.90;;;;;;5054332;28;19916;-68
2022/07/02 01:42:05;;;;;;;;;;;13.00;99.90;;;;;;5054050;28;19923;-68
2022/07/02 01:44:32;;;;;;;;;;;12.90;99.90;;;;;;5052762;28;20376;-68
2022/07/02 01:46:59;;;;;;;;;;;13.00;99.90;;;;;;5053880;28;19917;-68
2022/07/02 01:49:26;;;;;;;;;;;12.90;99.90;;;;;;5054737;28;19917;-68
2022/07/02 01:51:53;;;;;;;;;;;12.90;99.90;;;;;;5053023;28;19921;-68
2022/07/02 01:54:20;;;;;;;;;;;12.90;99.90;;;;;;5054899;28;19920;-68
2022/07/02 01:56:46;;;;;;;;;;;12.90;99.90;;;;;;5055109;28;19931;-68
2022/07/02 01:59:16;;;;;;;;;;;12.80;99.90;;;;;;5069483;28;19923;-68
2022/07/02 02:01:43;;;;;;;;;;;12.90;99.90;;;;;;5085323;28;19916;-68
2022/07/02 02:04:10;;;;;;;;;;;12.80;99.90;;;;;;5053780;28;19920;-68
2022/07/02 02:06:37;;;;;;;;;;;12.80;99.90;;;;;;5053689;28;20430;-68
2022/07/02 02:09:04;;;;;;;;;;;12.70;99.90;;;;;;5054430;28;19916;-68
2022/07/02 02:11:32;;;;;;;;;;;12.70;99.90;;;;;;5085499;28;19920;-68
2022/07/02 02:13:59;;;;;;;;;;;12.70;99.90;;;;;;5084816;28;19923;-68
2022/07/02 02:16:26;;;;;;;;;;;12.70;99.90;;;;;;5053579;28;20379;-68
2022/07/02 02:18:53;;;;;;;;;;;12.70;99.90;;;;;;5085844;28;19943;-68
2022/07/02 02:21:20;;;;;;;;;;;12.70;99.90;;;;;;5055909;28;19916;-68
2022/07/02 02:23:47;;;;;;;;;;;12.60;99.90;;;;;;5088226;28;19984;-68
2022/07/02 02:26:14;;;;;;;;;;;12.70;99.90;;;;;;5055358;28;19917;-68
2022/07/02 02:28:41;;;;;;;;;;;12.60;99.90;;;;;;5054486;28;20003;-68
2022/07/02 02:31:08;;;;;;;;;;;12.60;99.90;;;;;;5053457;28;19917;-68
2022/07/02 02:33:34;;;;;;;;;;;12.60;99.90;;;;;;5053549;28;20007;-68
2022/07/02 02:36:01;;;;;;;;;;;12.60;99.90;;;;;;5053433;28;19923;-68
2022/07/02 02:38:28;;;;;;;;;;;12.50;99.90;;;;;;5085407;28;20380;-68
2022/07/02 02:40:55;;;;;;;;;;;12.50;99.90;;;;;;5052441;28;19939;-68
2022/07/02 02:43:22;;;;;;;;;;;12.50;99.90;;;;;;5053329;28;19924;-68
2022/07/02 02:45:48;;;;;;;;;;;12.50;99.90;;;;;;5054131;28;19924;-68
2022/07/02 02:48:15;;;;;;;;;;;12.50;99.90;;;;;;5053525;28;19917;-68
2022/07/02 02:50:42;;;;;;;;;;;12.40;99.90;;;;;;5053610;28;20312;-68
2022/07/02 02:53:09;;;;;;;;;;;12.40;99.90;;;;;;5054382;28;19916;-68
2022/07/02 02:55:36;;;;;;;;;;;12.40;99.90;;;;;;5053159;28;19916;-68
2022/07/02 02:58:02;;;;;;;;;;;12.40;99.90;;;;;;5053473;28;19920;-68
2022/07/02 03:00:29;;;;;;;;;;;12.40;99.90;;;;;;5053507;28;19921;-68
2022/07/02 03:02:56;;;;;;;;;;;12.40;99.90;;;;;;5053018;28;19916;-68
2022/07/02 03:05:23;;;;;;;;;;;12.40;99.90;;;;;;5053037;28;19916;-68
2022/07/02 03:07:50;;;;;;;;;;;12.30;99.90;;;;;;5085154;28;19924;-68
2022/07/02 03:10:20;;;;;;;;;;;12.30;99.90;;;;;;5053671;28;19916;-68
2022/07/02 03:12:47;;;;;;;;;;;12.30;99.90;;;;;;5053922;28;19939;-68
2022/07/02 03:15:14;;;;;;;;;;;12.30;99.90;;;;;;5053292;28;19928;-68
2022/07/02 03:17:41;;;;;;;;;;;12.30;99.90;;;;;;5051740;28;19916;-68
2022/07/02 03:20:08;;;;;;;;;;;12.30;99.90;;;;;;5053296;28;20336;-68
2022/07/02 03:22:35;;;;;;;;;;;12.30;99.90;;;;;;5086145;28;19924;-69
2022/07/02 03:25:02;;;;;;;;;;;12.30;99.90;;;;;;5086817;28;19920;-68
2022/07/02 03:27:30;;;;;;;;;;;12.30;99.90;;;;;;5055636;28;20011;-68
2022/07/02 03:29:57;;;;;;;;;;;12.30;99.90;;;;;;5056494;28;20356;-67
2022/07/02 03:32:28;;;;;;;;;;;12.30;99.90;;;;;;5088858;28;20364;-68
2022/07/02 03:34:55;;;;;;;;;;;12.30;99.90;;;;;;5057389;28;19917;-68
2022/07/02 03:37:25;;;;;;;;;;;12.30;99.90;;;;;;5057155;28;19940;-68
2022/07/02 03:39:52;;;;;;;;;;;12.30;99.90;;;;;;5057107;28;20337;-68
2022/07/02 03:42:19;;;;;;;;;;;12.30;99.90;;;;;;5056608;28;19923;-68
2022/07/02 03:44:46;;;;;;;;;;;12.20;99.90;;;;;;5089251;28;19923;-68
2022/07/02 03:47:12;;;;;;;;;;;12.20;99.90;;;;;;5056137;28;20371;-68
2022/07/02 03:49:39;;;;;;;;;;;12.20;99.90;;;;;;5057269;28;19917;-67
2022/07/02 03:52:06;;;;;;;;;;;12.20;99.90;;;;;;5056059;28;19917;-68
2022/07/02 03:54:33;;;;;;;;;;;12.20;99.90;;;;;;5056299;28;19920;-68
2022/07/02 03:57:00;;;;;;;;;;;12.20;99.90;;;;;;5088221;28;19924;-68
2022/07/02 03:59:27;;;;;;;;;;;12.20;99.90;;;;;;5055973;28;19924;-68
2022/07/02 04:01:53;;;;;;;;;;;12.20;99.90;;;;;;5055891;28;19942;-68
2022/07/02 04:04:20;;;;;;;;;;;12.30;99.90;;;;;;5055816;28;19917;-68
2022/07/02 04:06:47;;;;;;;;;;;12.20;99.90;;;;;;5056679;28;19924;-68
2022/07/02 04:09:14;;;;;;;;;;;12.20;99.90;;;;;;5055759;28;19923;-68
2022/07/02 04:11:41;;;;;;;;;;;12.20;99.90;;;;;;5056896;28;19916;-68
2022/07/02 04:14:07;;;;;;;;;;;12.30;99.90;;;;;;5055900;28;19916;-68
2022/07/02 04:16:34;;;;;;;;;;;12.30;99.90;;;;;;5055956;28;19916;-68
2022/07/02 04:19:01;;;;;;;;;;;12.30;99.90;;;;;;5056633;28;20307;-68
2022/07/02 04:21:41;;;;;;;;;;;12.40;99.90;;;;;;5055981;28;19916;-68
2022/07/02 04:24:08;;;;;;;;;;;12.40;99.90;;;;;;5056593;28;19917;-67
2022/07/02 04:26:35;;;;;;;;;;;12.40;99.90;;;;;;5087873;28;19917;-67
2022/07/02 04:29:02;;;;;;;;;;;12.50;99.90;;;;;;5056526;28;19917;-67
2022/07/02 04:31:35;;;;;;;;;;;12.50;99.90;;;;;;5087492;28;19923;-67
2022/07/02 04:34:05;;;;;;;;;;;12.50;99.90;;;;;;5057222;28;19916;-68
2022/07/02 04:36:31;;;;;;;;;;;12.60;99.90;;;;;;5054825;28;19917;-68
2022/07/02 04:39:01;;;;;;;;;;;12.60;99.90;;;;;;5055552;28;19923;-68
2022/07/02 04:41:28;;;;;;;;;;;12.60;99.90;;;;;;5055165;28;20379;-68
2022/07/02 04:43:58;;;;;;;;;;;12.70;99.90;;;;;;5056160;28;19917;-68
2022/07/02 04:46:51;;;;;;;;;;;12.80;99.90;;;;;;5055392;28;19920;-68
2022/07/02 04:49:18;;;;;;;;;;;13.20;99.90;;;;;;5081242;28;19923;-68
2022/07/02 04:51:52;;;;;;;;;;;13.80;99.90;;;;;;5054711;28;20439;-68
2022/07/02 04:54:19;;;;;;;;;;;14.30;99.90;;;;;;5054790;28;19970;-69
2022/07/02 04:56:48;;;;;;;;;;;14.90;99.90;;;;;;5055005;28;19921;-68
2022/07/02 04:59:29;;;;;;;;;;;15.30;99.90;;;;;;5055062;28;20292;-67
2022/07/02 05:02:17;;;;;;;;;;;15.90;99.90;;;;;;5053702;28;19917;-68
2022/07/02 05:04:46;;;;;;;;;;;16.20;99.90;;;;;;5054633;28;19924;-68
2022/07/02 05:07:22;;;;;;;;;;;16.70;99.90;;;;;;5055771;28;19956;-68
2022/07/02 05:09:57;;;;;;;;;;;17.10;99.90;;;;;;5055175;28;19952;-68
2022/07/02 05:12:24;;;;;;;;;;;17.60;99.90;;;;;;5086395;28;19920;-68
2022/07/02 05:14:51;;;;;;;;;;;17.90;99.90;;;;;;5053278;28;19916;-68
2022/07/02 05:17:36;;;;;;;;;;;18.10;99.90;;;;;;5054488;28;20372;-68
2022/07/02 05:20:06;;;;;;;;;;;18.40;99.90;;;;;;5055389;28;19917;-68
2022/07/02 05:22:40;;;;;;;;;;;18.60;99.90;;;;;;5055611;28;19923;-68
2022/07/02 05:25:07;;;;;;;;;;;18.60;99.90;;;;;;5054663;28;20011;-69
2022/07/02 05:27:37;;;;;;;;;;;18.30;99.90;;;;;;5085460;28;19916;-69
2022/07/02 05:30:04;;;;;;;;;;;17.90;99.90;;;;;;5054982;28;19995;-69
2022/07/02 05:32:49;;;;;;;;;;;17.70;99.90;;;;;;5054252;28;19970;-68
2022/07/02 05:35:34;;;;;;;;;;;17.90;99.90;;;;;;5054597;28;19917;-68
2022/07/02 05:38:21;;;;;;;;;;;18.00;99.90;;;;;;5086352;28;19923;-69
2022/07/02 05:41:02;;;;;;;;;;;18.20;99.90;;;;;;5053871;28;19920;-69
2022/07/02 05:43:39;;;;;;;;;;;18.40;99.90;;;;;;5054956;28;20015;-69
2022/07/02 05:46:06;;;;;;;;;;;18.50;99.90;;;;;;5086167;28;19923;-69
2022/07/02 05:48:34;;;;;;;;;;;18.50;99.90;;;;;;5053946;28;19978;-68
2022/07/02 05:51:01;;;;;;;;;;;18.50;99.90;;;;;;5085962;28;20352;-68
2022/07/02 05:53:28;;;;;;;;;;;18.30;99.90;;;;;;5055058;28;19916;-68
2022/07/02 05:56:13;;;;;;;;;;;18.20;99.90;;;;;;5054096;28;20255;-69
2022/07/02 05:58:40;;;;;;;;;;;18.20;99.90;;;;;;5053897;28;19932;-69
2022/07/02 06:01:07;;;;;;;;;;;18.10;99.90;;;;;;5055000;28;19916;-69
2022/07/02 06:03:34;;;;;;;;;;;18.10;99.90;;;;;;5052869;28;19920;-68
2022/07/02 06:09:07;;;;;;;;;;;17.90;99.90;;;;;;5078102;28;19935;-69
2022/07/02 06:11:43;;;;;;;;;;;18.00;99.90;;;;;;5052908;28;19921;-70
2022/07/02 06:14:11;;;;;;;;;;;18.10;99.90;;;;;;5054559;28;19923;-67
2022/07/02 06:16:46;;;;;;;;;;;18.00;99.90;;;;;;5054543;28;19970;-70
2022/07/02 06:19:13;;;;;;;;;;;18.00;99.90;;;;;;5054841;28;20027;-70
2022/07/02 06:21:49;;;;;;;;;;;18.00;99.90;;;;;;5086530;28;19920;-71
2022/07/02 06:24:43;;;;;;;;;;;17.90;99.90;;;;;;5053270;28;20360;-70
2022/07/02 06:27:13;;;;;;;;;;;17.90;99.90;;;;;;5060386;28;20011;-70
2022/07/02 06:29:40;;;;;;;;;;;17.80;99.90;;;;;;5054311;28;19916;-68
2022/07/02 06:32:07;;;;;;;;;;;17.90;99.90;;;;;;5052616;28;19927;-69
2022/07/02 06:34:40;;;;;;;;;;;17.80;99.90;;;;;;5053828;28;20291;-69
2022/07/02 06:37:28;;;;;;;;;;;17.90;99.90;;;;;;5053700;28;19920;-68
2022/07/02 06:39:55;;;;;;;;;;;17.80;99.90;;;;;;5054535;28;19916;-68
2022/07/02 06:42:34;;;;;;;;;;;17.90;99.90;;;;;;5052172;28;20011;-68
2022/07/02 06:45:01;;;;;;;;;;;18.00;99.90;;;;;;5054486;28;19916;-70
2022/07/02 06:47:30;;;;;;;;;;;18.10;99.90;;;;;;5053081;28;19916;-64
2022/07/02 06:49:57;;;;;;;;;;;18.00;99.90;;;;;;5084643;28;19916;-70
2022/07/02 06:55:20;;;;;;;;;;;17.90;99.90;;;;;;5053026;28;19916;-70
2022/07/02 06:57:51;;;;;;;;;;;17.80;99.90;;;;;;5054184;28;19917;-69
2022/07/02 07:00:21;;;;;;;;;;;17.60;99.90;;;;;;5055805;28;19917;-69
2022/07/02 07:03:07;;;;;;;;;;;17.60;99.90;;;;;;5082009;28;19924;-70
2022/07/02 07:05:39;;;;;;;;;;;17.50;99.90;;;;;;5056886;28;20410;-68
2022/07/02 07:08:06;;;;;;;;;;;17.50;99.90;;;;;;5055952;28;19916;-71
2022/07/02 07:10:33;;;;;;;;;;;17.60;99.90;;;;;;5057795;28;19917;-71
2022/07/02 07:13:11;;;;;;;;;;;17.70;99.90;;;;;;5058480;28;19971;-71
2022/07/02 07:15:38;;;;;;;;;;;17.70;99.90;;;;;;5059335;28;19917;-61
2022/07/02 07:18:07;;;;;;;;;;;17.70;99.90;;;;;;5060330;28;19984;-74
2022/07/02 07:20:36;;;;;;;;;;;17.90;99.90;;;;;;5091000;28;19921;-69
2022/07/02 07:23:02;;;;;;;;;;;17.80;99.90;;;;;;5057835;28;19917;-69
2022/07/02 07:25:30;;;;;;;;;;;17.70;99.90;;;;;;5057194;28;19987;-68
2022/07/02 07:28:09;;;;;;;;;;;17.70;99.90;;;;;;5056855;28;19916;-69
2022/07/02 07:30:36;;;;;;;;;;;17.80;99.90;;;;;;5056705;28;19916;-69
2022/07/02 07:33:05;;;;;;;;;;;17.80;99.90;;;;;;5057522;28;19916;-69
2022/07/02 07:35:40;;;;;;;;;;;17.70;99.90;;;;;;5057625;28;19917;-69
2022/07/02 07:38:21;;;;;;;;;;;17.60;99.90;;;;;;5056787;28;19916;-70
2022/07/02 07:40:48;;;;;;;;;;;17.60;99.90;;;;;;5056182;28;19940;-68
2022/07/02 07:43:15;;;;;;;;;;;17.70;99.90;;;;;;5056622;28;19923;-69
2022/07/02 07:45:42;;;;;;;;;;;17.90;99.90;;;;;;5057052;28;19923;-69
2022/07/02 07:48:08;;;;;;;;;;;18.00;99.90;;;;;;5056166;28;20344;-69
2022/07/02 07:50:38;;;;;;;;;;;18.30;99.90;;;;;;5089532;28;19917;-69
2022/07/02 07:53:05;;;;;;;;;;;18.60;99.90;;;;;;5088415;28;19916;-69
2022/07/02 07:55:32;;;;;;;;;;;18.80;99.90;;;;;;5056976;28;19924;-70
2022/07/02 07:58:02;;;;;;;;;;;19.00;99.90;;;;;;5056883;28;20391;-69
2022/07/02 08:00:29;;;;;;;;;;;19.30;99.90;;;;;;5088854;28;19920;-70
2022/07/02 08:02:55;;;;;;;;;;;19.40;99.90;;;;;;5088935;28;19917;-70
2022/07/02 08:05:22;;;;;;;;;;;19.60;99.90;;;;;;5056832;28;20039;-69
2022/07/02 08:07:49;;;;;;;;;;;19.80;99.90;;;;;;5057350;28;19939;-69
2022/07/02 08:10:18;;;;;;;;;;;19.60;99.90;;;;;;5055573;28;19964;-69
2022/07/02 08:12:44;;;;;;;;;;;19.60;99.90;;;;;;5055461;28;19924;-69
2022/07/02 08:15:11;;;;;;;;;;;19.70;99.90;;;;;;5088126;28;19920;-69
2022/07/02 08:17:38;;;;;;;;;;;19.80;99.90;;;;;;5056652;28;19931;-69
2022/07/02 08:20:05;;;;;;;;;;;19.90;99.90;;;;;;5056650;28;19923;-69
2022/07/02 08:22:32;;;;;;;;;;;20.00;99.90;;;;;;5055379;28;19962;-69
2022/07/02 08:25:08;;;;;;;;;;;20.10;99.90;;;;;;5055857;28;19917;-69
2022/07/02 08:27:38;;;;;;;;;;;20.20;99.90;;;;;;5055386;28;19916;-69
2022/07/02 08:30:14;;;;;;;;;;;20.20;99.90;;;;;;5056699;28;19920;-70
2022/07/02 08:32:44;;;;;;;;;;;20.10;99.90;;;;;;5056034;28;19925;-70
2022/07/02 08:35:12;;;;;;;;;;;20.10;99.90;;;;;;5055747;28;19970;-70
2022/07/02 08:37:39;;;;;;;;;;;20.20;99.90;;;;;;5054452;28;19917;-63
2022/07/02 08:40:11;;;;;;;;;;;20.40;99.90;;;;;;5056272;28;19916;-61
2022/07/02 08:42:40;;;;;;;;;;;20.50;99.90;;;;;;5056792;28;19923;-66
2022/07/02 08:45:15;;;;;;;;;;;20.70;99.90;;;;;;5054610;28;19916;-66
2022/07/02 08:47:45;;;;;;;;;;;20.80;99.90;;;;;;5087741;28;19916;-66
2022/07/02 08:50:12;;;;;;;;;;;21.00;99.90;;;;;;5087451;28;19917;-68
2022/07/02 08:52:40;;;;;;;;;;;21.20;99.90;;;;;;5055675;28;20280;-68
2022/07/02 08:55:10;;;;;;;;;;;21.20;98.50;;;;;;5087392;28;19957;-68
2022/07/02 08:57:37;;;;;;;;;;;21.20;99.70;;;;;;5055223;28;19917;-67
2022/07/02 09:00:04;;;;;;;;;;;21.20;98.10;;;;;;5087053;28;19920;-68
2022/07/02 09:02:31;;;;;;;;;;;21.30;96.80;;;;;;5088120;28;19917;-67
2022/07/02 09:05:10;;;;;;;;;;;21.30;96.80;;;;;;5086948;28;19917;-68
2022/07/02 09:07:37;;;;;;;;;;;21.40;97.00;;;;;;5055772;28;19924;-67
2022/07/02 09:10:06;;;;;;;;;;;21.60;93.10;;;;;;5053808;28;19917;-69
2022/07/02 09:12:34;;;;;;;;;;;21.60;92.00;;;;;;5053733;28;19923;-67
2022/07/02 09:15:00;;;;;;;;;;;21.70;92.40;;;;;;5087179;28;19916;-67
2022/07/02 09:17:30;;;;;;;;;;;21.70;93.70;;;;;;5086122;28;19967;-67
2022/07/02 09:19:57;;;;;;;;;;;21.60;91.70;;;;;;5070742;28;19916;-68
2022/07/02 09:22:34;;;;;;;;;;;21.60;91.80;;;;;;5054140;28;20356;-67
2022/07/02 09:25:16;;;;;;;;;;;21.40;91.00;;;;;;5055628;28;19916;-68
2022/07/02 09:27:44;;;;;;;;;;;21.40;90.40;;;;;;5070054;28;19920;-68
2022/07/02 09:30:12;;;;;;;;;;;21.50;89.80;;;;;;5054520;28;19917;-67
2022/07/02 09:32:42;;;;;;;;;;;21.50;90.30;;;;;;5054179;28;19979;-68
2022/07/02 09:35:38;;;;;;;;;;;21.50;90.60;;;;;;5086037;28;19916;-72
2022/07/02 09:38:09;;;;;;;;;;;21.50;92.70;;;;;;5053493;28;20232;-72
2022/07/02 09:40:37;;;;;;;;;;;21.70;91.50;;;;;;5054536;28;20387;-73
2022/07/02 09:43:04;;;;;;;;;;;21.80;92.00;;;;;;5085969;28;19927;-72
2022/07/02 09:45:30;;;;;;;;;;;21.90;90.20;;;;;;5054910;28;19923;-72
2022/07/02 09:48:01;;;;;;;;;;;22.00;89.70;;;;;;5054022;28;19986;-72
2022/07/02 09:50:27;;;;;;;;;;;22.00;87.50;;;;;;5054820;28;19946;-73
2022/07/02 09:52:55;;;;;;;;;;;22.00;89.40;;;;;;5053886;28;19991;-72
2022/07/02 09:55:25;;;;;;;;;;;22.00;85.80;;;;;;5054623;28;19917;-72
2022/07/02 09:57:54;;;;;;;;;;;22.00;86.00;;;;;;5053859;28;19917;-73
2022/07/02 10:00:27;;;;;;;;;;;22.00;84.80;;;;;;5053731;28;20003;-73
2022/07/02 10:02:56;;;;;;;;;;;22.20;86.00;;;;;;5054946;28;19921;-73
2022/07/02 10:05:24;;;;;;;;;;;22.20;82.10;;;;;;5053974;28;19958;-73
2022/07/02 10:07:58;;;;;;;;;;;22.30;82.20;;;;;;5070184;28;19924;-73
2022/07/02 10:10:28;;;;;;;;;;;22.30;80.10;;;;;;5054411;28;19971;-73
2022/07/02 10:12:55;;;;;;;;;;;22.20;78.70;;;;;;5053614;28;19927;-69
2022/07/02 10:15:31;;;;;;;;;;;22.20;79.40;;;;;;5053569;28;19916;-69
2022/07/02 10:18:00;;;;;;;;;;;22.30;78.10;;;;;;5085653;28;19927;-69
2022/07/02 10:20:30;;;;;;;;;;;22.40;78.20;;;;;;5053908;28;20230;-69
2022/07/02 10:23:02;;;;;;;;;;;22.50;78.20;;;;;;5053532;28;20376;-70
2022/07/02 10:25:29;;;;;;;;;;;22.60;77.80;;;;;;5053888;28;19923;-70
2022/07/02 10:27:56;;;;;;;;;;;22.60;76.70;;;;;;5069201;28;19940;-70
2022/07/02 10:30:32;;;;;;;;;;;22.90;77.70;;;;;;5053564;28;20360;-72
2022/07/02 10:32:59;;;;;;;;;;;23.00;76.50;;;;;;5053532;28;19917;-69
2022/07/02 10:35:25;;;;;;;;;;;23.10;75.70;;;;;;5056418;28;20012;-72
2022/07/02 10:37:59;;;;;;;;;;;23.00;75.70;;;;;;5057610;28;19924;-74
2022/07/02 10:40:31;;;;;;;;;;;23.00;74.60;;;;;;5059284;28;19917;-75
2022/07/02 10:43:04;;;;;;;;;;;22.90;74.60;;;;;;5060399;28;19940;-70
2022/07/02 10:45:38;;;;;;;;;;;22.90;77.70;;;;;;5058224;28;19966;-70
2022/07/02 10:48:06;;;;;;;;;;;22.90;75.70;;;;;;5059495;28;20276;-77
2022/07/02 10:50:35;;;;;;;;;;;22.90;75.20;;;;;;5060579;28;19917;-76
2022/07/02 10:53:21;;;;;;;;;;;22.90;74.80;;;;;;5059154;28;20355;-77
2022/07/02 10:55:55;;;;;;;;;;;22.80;77.00;;;;;;5089626;28;19916;-74
2022/07/02 10:58:25;;;;;;;;;;;22.90;77.20;;;;;;5057555;28;19921;-74
2022/07/02 11:00:56;;;;;;;;;;;23.00;77.30;;;;;;5058003;28;19916;-75
2022/07/02 11:03:25;;;;;;;;;;;23.20;77.30;;;;;;5057684;28;19917;-74
2022/07/02 11:05:59;;;;;;;;;;;23.30;77.80;;;;;;5089404;28;20011;-75
2022/07/02 11:08:39;;;;;;;;;;;23.30;76.70;;;;;;5056924;28;20378;-75
2022/07/02 11:11:08;;;;;;;;;;;23.20;77.10;;;;;;5073248;28;20011;-78
2022/07/02 11:14:04;;;;;;;;;;;23.30;79.20;;;;;;5060591;28;19916;-72
2022/07/02 11:16:34;;;;;;;;;;;23.40;78.20;;;;;;5062550;28;19923;-75
2022/07/02 11:19:02;;;;;;;;;;;23.30;77.40;;;;;;5093211;28;20318;-70
2022/07/02 11:21:29;;;;;;;;;;;23.40;77.10;;;;;;5057468;28;20267;-70
2022/07/02 11:23:56;;;;;;;;;;;23.30;74.20;;;;;;5057017;28;19924;-69
2022/07/02 11:26:23;;;;;;;;;;;23.30;75.10;;;;;;5089399;28;19923;-73
2022/07/02 11:28:50;;;;;;;;;;;23.30;75.50;;;;;;5090757;28;19924;-73
2022/07/02 11:31:17;;;;;;;;;;;23.20;73.80;;;;;;5091709;28;19960;-77
2022/07/02 11:33:45;;;;;;;;;;;23.10;74.20;;;;;;5057090;28;19957;-65
2022/07/02 11:36:12;;;;;;;;;;;23.20;75.10;;;;;;5057507;28;19917;-65
2022/07/02 11:38:39;;;;;;;;;;;23.20;75.30;;;;;;5057427;28;19924;-65
2022/07/02 11:41:15;;;;;;;;;;;23.10;76.20;;;;;;5056585;28;19923;-66
2022/07/02 11:43:44;;;;;;;;;;;23.20;77.00;;;;;;5056311;28;19979;-65
2022/07/02 11:46:12;;;;;;;;;;;23.30;74.60;;;;;;5056394;28;19923;-65
2022/07/02 11:48:39;;;;;;;;;;;23.40;74.40;;;;;;5057024;28;19916;-65
2022/07/02 11:51:06;;;;;;;;;;;23.60;75.30;;;;;;5057395;28;19916;-65
2022/07/02 11:53:34;;;;;;;;;;;23.70;75.50;;;;;;5055834;28;19916;-78
2022/07/02 11:56:16;;;;;;;;;;;23.70;74.50;;;;;;5056533;28;19916;-73
2022/07/02 11:58:44;;;;;;;;;;;23.80;72.80;;;;;;5056269;28;20360;-77
2022/07/02 12:01:40;;;;;;;;;;;23.90;72.50;;;;;;5056670;28;19921;-75
2022/07/02 12:04:09;;;;;;;;;;;23.90;71.20;;;;;;5054400;28;20011;-76
2022/07/02 12:06:39;;;;;;;;;;;23.90;72.90;;;;;;5055899;28;19916;-66
2022/07/02 12:09:07;;;;;;;;;;;24.00;70.20;;;;;;5088240;28;20248;-75
2022/07/02 12:11:35;;;;;;;;;;;24.10;70.40;;;;;;5055972;28;19917;-75
2022/07/02 12:14:05;;;;;;;;;;;24.00;69.80;;;;;;5055951;28;19921;-76
2022/07/02 12:16:32;;;;;;;;;;;24.20;71.10;;;;;;5057100;28;19924;-78
2022/07/02 12:19:00;;;;;;;;;;;24.20;70.00;;;;;;5056778;28;19952;-74
2022/07/02 12:21:37;;;;;;;;;;;24.20;69.20;;;;;;5088531;28;19921;-70
2022/07/02 12:24:04;;;;;;;;;;;24.30;70.20;;;;;;5055654;28;19924;-73
2022/07/02 12:26:31;;;;;;;;;;;24.40;69.30;;;;;;5088788;28;19996;-80
2022/07/02 12:31:51;;;;;;;;;;;24.30;69.60;;;;;;5083802;28;19916;-78
2022/07/02 12:34:19;;;;;;;;;;;24.20;69.10;;;;;;5055032;28;19917;-77
2022/07/02 12:36:53;;;;;;;;;;;24.30;69.60;;;;;;5055417;28;20356;-77
2022/07/02 12:39:21;;;;;;;;;;;24.20;68.30;;;;;;5056476;28;20352;-76
2022/07/02 12:41:48;;;;;;;;;;;24.10;69.60;;;;;;5087651;28;20273;-73
2022/07/02 12:44:15;;;;;;;;;;;24.10;69.80;;;;;;5087734;28;20275;-70
2022/07/02 12:46:47;;;;;;;;;;;24.10;70.10;;;;;;5055621;28;19963;-70
2022/07/02 12:49:20;;;;;;;;;;;24.20;69.90;;;;;;5055320;28;19917;-72
2022/07/02 12:52:14;;;;;;;;;;;24.00;68.50;;;;;;5056431;28;19995;-76
2022/07/02 12:54:41;;;;;;;;;;;23.90;69.40;;;;;;5055754;28;19923;-75
2022/07/02 12:57:13;;;;;;;;;;;23.90;68.70;;;;;;5054471;28;20378;-74
2022/07/02 12:59:39;;;;;;;;;;;24.20;69.10;;;;;;5087522;28;20260;-77
2022/07/02 13:02:07;;;;;;;;;;;24.40;70.10;;;;;;5087552;28;19943;-77
2022/07/02 13:04:35;;;;;;;;;;;24.60;68.90;;;;;;5055226;28;19921;-74
2022/07/02 13:07:03;;;;;;;;;;;24.60;69.50;;;;;;5055031;28;19962;-75
2022/07/02 13:09:29;;;;;;;;;;;24.60;67.90;;;;;;5054931;28;20011;-79
2022/07/02 13:11:56;;;;;;;;;;;24.40;68.80;;;;;;5055815;28;19923;-79
2022/07/02 13:14:23;;;;;;;;;;;24.30;67.50;;;;;;5056296;28;19923;-78
2022/07/02 13:16:50;;;;;;;;;;;24.00;66.90;;;;;;5054899;28;19916;-77
2022/07/02 13:19:17;;;;;;;;;;;24.00;67.80;;;;;;5055621;28;19916;-78
2022/07/02 13:21:44;;;;;;;;;;;23.90;66.90;;;;;;5055783;28;20015;-76
2022/07/02 13:24:11;;;;;;;;;;;23.80;65.90;;;;;;5054616;28;19942;-76
2022/07/02 13:26:38;;;;;;;;;;;23.80;66.90;;;;;;5054576;28;20364;-75
2022/07/02 13:29:05;;;;;;;;;;;23.90;68.30;;;;;;5055041;28;19928;-78
2022/07/02 13:31:32;;;;;;;;;;;24.00;66.60;;;;;;5054323;28;19917;-71
2022/07/02 13:34:02;;;;;;;;;;;24.00;66.90;;;;;;5085634;28;19967;-74
2022/07/02 13:36:29;;;;;;;;;;;23.90;68.20;;;;;;5054606;28;19917;-66
2022/07/02 13:38:56;;;;;;;;;;;24.10;67.70;;;;;;5055090;28;19923;-73
2022/07/02 13:41:23;;;;;;;;;;;24.20;67.60;;;;;;5086270;28;19916;-79
2022/07/02 13:43:50;;;;;;;;;;;24.20;66.50;;;;;;5086627;28;19923;-78
2022/07/02 13:46:16;;;;;;;;;;;24.20;68.00;;;;;;5070196;28;19917;-79
2022/07/02 13:48:43;;;;;;;;;;;24.30;68.80;;;;;;5055265;28;19924;-78
2022/07/02 13:51:10;;;;;;;;;;;24.40;67.90;;;;;;5054718;28;19927;-69
2022/07/02 13:53:37;;;;;;;;;;;24.60;65.80;;;;;;5054750;28;19923;-75
2022/07/02 13:56:04;;;;;;;;;;;24.60;65.40;;;;;;5054673;28;19916;-68
2022/07/02 13:58:31;;;;;;;;;;;24.60;65.60;;;;;;5086509;28;19916;-72
2022/07/02 14:00:58;;;;;;;;;;;24.40;66.00;;;;;;5070168;28;19916;-71
2022/07/02 14:03:28;;;;;;;;;;;24.50;66.90;;;;;;5085573;28;20354;-72
2022/07/02 14:05:54;;;;;;;;;;;24.60;65.90;;;;;;5054592;28;19920;-72
2022/07/02 14:08:21;;;;;;;;;;;24.40;66.40;;;;;;5085710;28;19916;-70
2022/07/02 14:10:48;;;;;;;;;;;24.30;67.40;;;;;;5085729;28;20011;-71
2022/07/02 14:13:15;;;;;;;;;;;24.40;65.50;;;;;;5053987;28;19920;-72
2022/07/02 14:15:42;;;;;;;;;;;24.60;65.60;;;;;;5053606;28;20364;-72
2022/07/02 14:18:09;;;;;;;;;;;24.60;65.50;;;;;;5085662;28;19916;-72
2022/07/02 14:20:36;;;;;;;;;;;24.60;66.10;;;;;;5053814;28;19916;-72
2022/07/02 14:23:05;;;;;;;;;;;24.70;66.40;;;;;;5053409;28;19920;-72
2022/07/02 14:25:32;;;;;;;;;;;24.50;65.40;;;;;;5053468;28;20383;-72
2022/07/02 14:27:59;;;;;;;;;;;24.40;66.40;;;;;;5053425;28;19920;-72
2022/07/02 14:30:26;;;;;;;;;;;24.30;66.50;;;;;;5053744;28;20272;-71
2022/07/02 14:32:53;;;;;;;;;;;24.40;66.60;;;;;;5054168;28;19921;-72
2022/07/02 14:35:19;;;;;;;;;;;24.40;66.70;;;;;;5053754;28;19923;-70
2022/07/02 14:37:46;;;;;;;;;;;24.40;65.30;;;;;;5053726;28;19923;-70
2022/07/02 14:40:13;;;;;;;;;;;24.20;66.40;;;;;;5053569;28;19978;-71